Whitecourt Airport
CYZU : now visible

Airfield :











YOU CAN JOIN US ON...

 
LOGIN :

Register | Disclaimer

   EN    FR    IT 

 









Legend :    VFR   Marginal VFR   IFR   Intensive IFR   Very Intensive IFR
Visi :
Ceiling :
>= 8 km
>= 3000ft
5 to 8 km
1000 to 3000 ft
1500m to 5 km
500 to 1000 ft
800 to 1500m
200 to 500 ft
< 800m
< 200 ft
Symbols :   Thunderstorms  Fog  Heavy snow  Heavy precipitations  Wind > 20 kt






- Airport Elevation : 2567 ft
- IATA code : YZU


CYZU - Whitecourt

CURRENT METAR :
  • 072000Z 31022G31KT 15SM VCSH BKN060TCU 02/M10 A2982 RMK TCU5 PRESRR SLP131

EXPIRED METARs :
  • 071900Z 30022G30KT 15SM BKN062 02/M10 A2979 RMK SC6 SLP120
  • 071800Z 32024G32KT 15SM BKN063 01/M09 A2976 RMK SC7 SLP111
  • 071700Z 30017G29KT 15SM BKN055 01/M10 A2974 RMK SC7 SLP101

TAF TAF CYZU
Valid from the 07 at 19:00 until the 07 at 23:00 UTC


071838Z 0719/0723 32020G35KT P6SM SCT020 BKN060
TEMPO 0719/0723 2SM -SHSN VV015 RMK NXT FCST WILL BE ISSUED AT 081415Z



MET'MAP, your aeronautical weather chart ! - Copyright ORBIFLY December 2007 - Disclaimer

ORBIFLY MET'MAP TEAM :

Programming & Development : Alexandra Zaïnal
Concept & original design : Baudouin d'Aumeries
Assistance for programming : Marc-Olivier Méhu
Technical & hardware support : Manuel Goepfert

Contact : metmap@orbifly.com




SOURCES & CREDITS :

   NOAA       Earth
Advisory